Time;durP1;ratioP1;P1;durP2;ratioP2;P2;SDS_P1;SDS_P2;PMS_P1;PMS_P2;Temp;Humidity;BMP_temperature;BMP_pressure;BME280_temperature;BME280_humidity;BME280_pressure;Samples;Min_cycle;Max_cycle;Signal;HPM_P1;HPM_P2
2022/08/10 00:00:55;;;;;;;4.65;1.10;;;20.90;53.40;;;;;;6302008;28;20055;-78
2022/08/10 00:03:56;;;;;;;4.65;1.05;;;20.90;53.40;;;;;;6302154;28;20055;-79
2022/08/10 00:06:59;;;;;;;2.22;1.23;;;21.00;53.40;;;;;;6301266;28;20048;-77
2022/08/10 00:10:01;;;;;;;2.10;1.10;;;21.00;53.30;;;;;;6301519;28;20503;-79
2022/08/10 00:13:03;;;;;;;3.25;1.15;;;21.00;53.50;;;;;;6301900;28;20492;-79
2022/08/10 00:16:05;;;;;;;1.77;1.10;;;21.00;53.60;;;;;;6301501;28;20055;-79
2022/08/10 00:19:07;;;;;;;4.13;1.20;;;20.90;53.50;;;;;;6298651;28;20052;-79
2022/08/10 00:22:10;;;;;;;1.65;1.00;;;20.90;53.40;;;;;;6301008;28;20056;-76
2022/08/10 00:25:12;;;;;;;1.92;1.00;;;20.90;53.50;;;;;;6301738;28;20056;-78
2022/08/10 00:28:13;;;;;;;1.55;1.02;;;20.90;53.60;;;;;;6300519;28;20045;-78
2022/08/10 00:31:15;;;;;;;1.95;0.93;;;20.90;53.60;;;;;;6300705;28;20054;-77
2022/08/10 00:34:17;;;;;;;2.92;1.33;;;20.90;53.60;;;;;;6291499;28;20052;-79
2022/08/10 00:37:20;;;;;;;1.13;0.70;;;20.80;53.60;;;;;;6300636;28;20049;-78
2022/08/10 00:40:22;;;;;;;2.50;1.05;;;20.80;53.60;;;;;;6299906;28;20049;-77
2022/08/10 00:43:24;;;;;;;3.88;1.30;;;20.70;53.50;;;;;;6300757;28;20048;-76
2022/08/10 00:46:25;;;;;;;1.90;1.10;;;20.70;53.40;;;;;;6300747;28;20068;-76
2022/08/10 00:49:28;;;;;;;3.65;0.90;;;20.70;53.60;;;;;;6300434;28;20076;-77
2022/08/10 00:52:31;;;;;;;6.63;1.33;;;20.70;53.70;;;;;;6300402;28;20041;-78
2022/08/10 00:55:33;;;;;;;2.05;1.00;;;20.70;53.80;;;;;;6299741;28;20044;-77
2022/08/10 00:58:36;;;;;;;4.72;0.88;;;20.70;53.70;;;;;;6299948;28;20048;-78
2022/08/10 01:01:37;;;;;;;8.98;1.20;;;20.70;53.50;;;;;;6300769;28;20056;-78
2022/08/10 01:04:39;;;;;;;1.48;0.80;;;20.70;53.40;;;;;;6300247;28;20431;-78
2022/08/10 01:08:15;;;;;;;2.28;0.75;;;20.70;53.20;;;;;;6300008;28;20040;-78
2022/08/10 01:11:22;;;;;;;3.10;1.10;;;20.70;53.20;;;;;;6300359;28;20048;-78
2022/08/10 01:14:31;;;;;;;2.85;1.15;;;20.70;53.30;;;;;;6298956;28;20059;-78
2022/08/10 01:17:42;;;;;;;2.55;1.10;;;20.60;53.30;;;;;;6300152;28;20045;-77
2022/08/10 01:21:04;;;;;;;2.33;0.90;;;20.60;53.40;;;;;;6299475;28;20051;-78
2022/08/10 01:24:21;;;;;;;1.63;0.90;;;20.60;53.50;;;;;;6299327;28;20048;-77
2022/08/10 01:27:28;;;;;;;1.33;0.63;;;20.50;53.50;;;;;;6298918;28;20044;-78
2022/08/10 01:30:33;;;;;;;8.55;0.98;;;20.60;53.60;;;;;;6299244;28;20046;-78
2022/08/10 01:33:41;;;;;;;1.95;0.77;;;20.60;53.40;;;;;;6292770;28;20051;-78
2022/08/10 01:36:47;;;;;;;3.15;0.90;;;20.60;53.60;;;;;;6276240;28;20056;-78
2022/08/10 01:39:55;;;;;;;2.15;1.10;;;20.50;53.60;;;;;;6273697;28;20045;-78
2022/08/10 01:43:03;;;;;;;2.42;0.73;;;20.50;53.70;;;;;;6274611;28;20431;-78
2022/08/10 01:46:07;;;;;;;2.77;1.20;;;20.50;53.60;;;;;;6273838;28;20078;-77
2022/08/10 01:49:11;;;;;;;2.38;1.05;;;20.40;53.60;;;;;;6273642;28;20317;-78
2022/08/10 01:52:15;;;;;;;2.10;1.27;;;20.40;53.70;;;;;;6273953;28;20051;-78
2022/08/10 01:55:18;;;;;;;6.18;1.08;;;20.40;53.80;;;;;;6274277;28;20056;-78
2022/08/10 01:58:22;;;;;;;3.22;1.15;;;20.40;54.00;;;;;;6273786;28;20057;-79
2022/08/10 02:01:29;;;;;;;2.60;0.90;;;20.40;54.00;;;;;;6274845;28;20048;-77
2022/08/10 02:04:34;;;;;;;3.75;1.00;;;20.40;53.90;;;;;;6273602;28;20049;-78
2022/08/10 02:07:38;;;;;;;2.25;1.20;;;20.40;53.80;;;;;;6273808;28;20041;-77
2022/08/10 02:10:43;;;;;;;4.82;0.90;;;20.40;53.90;;;;;;6274281;28;20044;-78
2022/08/10 02:13:46;;;;;;;2.20;0.70;;;20.40;54.10;;;;;;6274375;28;20049;-78
2022/08/10 02:16:51;;;;;;;1.20;0.95;;;20.40;54.40;;;;;;6273581;28;20504;-77
2022/08/10 02:19:54;;;;;;;15.30;1.55;;;20.30;54.60;;;;;;6273525;28;20045;-77
2022/08/10 02:23:00;;;;;;;2.67;0.88;;;20.20;54.90;;;;;;6273246;28;20045;-78
2022/08/10 02:26:05;;;;;;;2.33;1.33;;;20.20;55.10;;;;;;6272705;28;20060;-78
2022/08/10 02:29:08;;;;;;;2.28;1.10;;;20.10;55.30;;;;;;6273672;28;20041;-78
2022/08/10 02:32:12;;;;;;;1.40;0.93;;;20.10;55.50;;;;;;6273983;28;20041;-78
2022/08/10 02:35:15;;;;;;;7.88;1.08;;;20.00;55.50;;;;;;6280386;28;20048;-79
2022/08/10 02:38:21;;;;;;;1.92;0.88;;;20.10;55.80;;;;;;6297226;28;20052;-78
2022/08/10 02:41:29;;;;;;;4.32;0.75;;;20.00;55.90;;;;;;6298301;28;20048;-77
2022/08/10 02:44:43;;;;;;;2.05;0.80;;;20.00;56.10;;;;;;6297799;28;20051;-75
2022/08/10 02:47:52;;;;;;;1.10;0.80;;;20.00;56.30;;;;;;6297463;28;20419;-76
2022/08/10 02:50:58;;;;;;;3.53;0.85;;;19.90;56.30;;;;;;6297810;28;20051;-78
2022/08/10 02:54:06;;;;;;;8.27;1.40;;;19.90;56.60;;;;;;6298097;28;20062;-78
2022/08/10 02:57:15;;;;;;;1.02;0.68;;;19.80;56.60;;;;;;6298555;28;20056;-79
2022/08/10 03:00:17;;;;;;;1.80;1.10;;;19.80;56.70;;;;;;6297536;28;20044;-76
2022/08/10 03:03:23;;;;;;;2.53;1.10;;;19.80;56.80;;;;;;6301364;28;20430;-76
2022/08/10 03:06:30;;;;;;;1.95;1.08;;;19.80;56.90;;;;;;6302683;28;20438;-78
2022/08/10 03:09:35;;;;;;;1.23;0.80;;;19.80;57.00;;;;;;6302475;28;20491;-77
2022/08/10 03:12:37;;;;;;;1.83;0.88;;;19.80;57.00;;;;;;6302480;28;20044;-78
2022/08/10 03:15:40;;;;;;;3.38;1.10;;;19.80;57.00;;;;;;6302455;28;20052;-78
2022/08/10 03:18:44;;;;;;;2.72;0.90;;;19.70;57.10;;;;;;6302421;28;20048;-76
2022/08/10 03:21:48;;;;;;;3.80;1.02;;;19.70;57.10;;;;;;6303651;28;20484;-76
2022/08/10 03:24:52;;;;;;;1.98;0.70;;;19.70;57.30;;;;;;6303593;28;20051;-76
2022/08/10 03:27:54;;;;;;;1.80;1.00;;;19.70;57.30;;;;;;6302603;28;20048;-78
2022/08/10 03:30:58;;;;;;;3.35;1.08;;;19.70;57.20;;;;;;6302686;28;20044;-78
2022/08/10 03:34:02;;;;;;;3.00;0.90;;;19.70;57.40;;;;;;6302492;28;20052;-78
2022/08/10 03:37:04;;;;;;;1.63;0.82;;;19.70;57.40;;;;;;6287767;28;20041;-79
2022/08/10 03:40:08;;;;;;;3.15;1.08;;;19.70;57.50;;;;;;6278498;28;20048;-78
2022/08/10 03:43:13;;;;;;;4.53;1.00;;;19.70;57.70;;;;;;6277123;28;20551;-78
2022/08/10 03:46:18;;;;;;;10.10;1.88;;;19.70;57.70;;;;;;6277395;28;20048;-78
2022/08/10 03:49:23;;;;;;;3.25;0.88;;;19.70;57.90;;;;;;6277147;28;20041;-74
2022/08/10 03:52:25;;;;;;;4.63;1.15;;;19.70;58.00;;;;;;6276707;28;20045;-78
2022/08/10 03:55:27;;;;;;;3.47;1.00;;;19.60;58.30;;;;;;6276856;28;20048;-78
2022/08/10 03:58:29;;;;;;;4.68;1.10;;;19.60;58.60;;;;;;6276068;28;20052;-78
2022/08/10 04:01:31;;;;;;;1.98;0.95;;;19.40;58.80;;;;;;6276516;28;20389;-78
2022/08/10 04:04:34;;;;;;;2.13;1.10;;;19.50;59.10;;;;;;6276250;28;20048;-78
2022/08/10 04:07:36;;;;;;;9.80;2.20;;;19.40;59.40;;;;;;6276181;28;20049;-77
2022/08/10 04:10:38;;;;;;;2.55;0.82;;;19.30;59.80;;;;;;6276502;28;20053;-76
2022/08/10 04:13:40;;;;;;;5.53;1.27;;;19.30;60.00;;;;;;6278409;28;20059;-78
2022/08/10 04:16:41;;;;;;;2.83;1.02;;;19.30;60.30;;;;;;6276589;28;20420;-78
2022/08/10 04:19:48;;;;;;;1.75;1.08;;;19.30;60.40;;;;;;6276832;28;20147;-78
2022/08/10 04:22:53;;;;;;;3.20;0.98;;;19.30;60.50;;;;;;6277488;28;20123;-78
2022/08/10 04:25:55;;;;;;;3.35;0.70;;;19.30;60.20;;;;;;6276815;28;20060;-77
2022/08/10 04:28:57;;;;;;;1.48;0.75;;;19.40;60.10;;;;;;6276353;28;20045;-77
2022/08/10 04:32:00;;;;;;;2.03;1.10;;;19.50;60.00;;;;;;6275664;28;20136;-77
2022/08/10 04:35:05;;;;;;;4.40;1.42;;;19.50;59.60;;;;;;6276258;28;20056;-78
2022/08/10 04:38:08;;;;;;;2.00;1.20;;;19.50;59.40;;;;;;6289178;28;20071;-77
2022/08/10 04:41:10;;;;;;;2.63;1.13;;;19.60;59.20;;;;;;6301708;28;20053;-76
2022/08/10 04:44:12;;;;;;;2.50;0.80;;;19.60;59.10;;;;;;6300897;28;20049;-78
2022/08/10 04:47:14;;;;;;;2.30;0.90;;;19.60;58.90;;;;;;6300460;28;20526;-73
2022/08/10 04:50:17;;;;;;;3.42;1.02;;;19.70;58.90;;;;;;6300605;28;20055;-76
2022/08/10 04:53:19;;;;;;;2.90;1.20;;;19.80;58.80;;;;;;6301094;28;20063;-78
2022/08/10 04:56:21;;;;;;;6.70;1.40;;;20.20;58.00;;;;;;6300110;28;20059;-77
2022/08/10 04:59:22;;;;;;;2.85;0.80;;;20.60;56.70;;;;;;6299438;28;20049;-76
2022/08/10 05:02:24;;;;;;;3.20;1.20;;;20.80;56.10;;;;;;6305006;28;20431;-76
2022/08/10 05:05:28;;;;;;;3.40;1.35;;;20.70;56.20;;;;;;6304305;28;20056;-78
2022/08/10 05:08:30;;;;;;;1.80;0.93;;;20.70;56.50;;;;;;6299369;28;20044;-78
2022/08/10 05:11:31;;;;;;;3.80;1.45;;;20.60;56.40;;;;;;6299696;28;20047;-78
2022/08/10 05:14:33;;;;;;;5.38;1.10;;;20.70;56.40;;;;;;6299530;28;20415;-78
2022/08/10 05:17:35;;;;;;;3.08;0.93;;;20.80;57.00;;;;;;6299479;28;20053;-76
2022/08/10 05:20:38;;;;;;;3.53;1.20;;;20.90;56.00;;;;;;6298978;28;20049;-76
2022/08/10 05:23:40;;;;;;;3.17;1.00;;;21.00;55.60;;;;;;6298289;28;20526;-78
2022/08/10 05:26:42;;;;;;;2.03;0.82;;;21.10;55.40;;;;;;6299491;28;20049;-78
2022/08/10 05:29:43;;;;;;;2.67;1.25;;;21.30;55.30;;;;;;6299900;28;20044;-76
2022/08/10 05:32:45;;;;;;;5.95;1.30;;;21.60;54.40;;;;;;6299588;28;20055;-78
2022/08/10 05:35:48;;;;;;;3.60;1.10;;;21.80;53.60;;;;;;6299957;28;20052;-78
2022/08/10 05:38:51;;;;;;;4.28;1.33;;;22.10;52.90;;;;;;6285455;28;20049;-77
2022/08/10 05:41:54;;;;;;;2.55;1.38;;;22.20;52.70;;;;;;6271156;28;20052;-76
2022/08/10 05:44:56;;;;;;;6.65;1.63;;;22.50;52.10;;;;;;6271653;28;20512;-76
2022/08/10 05:47:58;;;;;;;14.43;1.30;;;23.30;51.10;;;;;;6270366;28;20056;-76
2022/08/10 05:51:01;;;;;;;4.47;0.95;;;25.10;47.30;;;;;;6270963;28;20508;-76
2022/08/10 05:54:03;;;;;;;4.53;1.33;;;26.90;43.70;;;;;;6270755;28;20519;-76
2022/08/10 05:57:05;;;;;;;5.32;0.60;;;28.40;41.00;;;;;;6271763;28;20140;-76
2022/08/10 06:00:10;;;;;;;2.70;1.00;;;29.20;39.20;;;;;;6270766;28;20056;-76
2022/08/10 06:03:16;;;;;;;2.38;0.85;;;29.20;38.40;;;;;;6270966;28;20056;-76
2022/08/10 06:06:21;;;;;;;2.58;0.90;;;28.30;39.60;;;;;;6270700;28;20053;-77
2022/08/10 06:09:25;;;;;;;2.22;1.08;;;27.70;40.90;;;;;;6270927;28;20421;-76
2022/08/10 06:12:29;;;;;;;4.53;0.80;;;27.80;41.00;;;;;;6270471;28;20060;-76
2022/08/10 06:15:30;;;;;;;3.58;0.82;;;27.90;40.70;;;;;;6270699;28;20049;-77
2022/08/10 06:18:32;;;;;;;4.82;1.45;;;27.70;41.00;;;;;;6269872;28;20052;-77
2022/08/10 06:21:36;;;;;;;1.92;0.90;;;27.30;41.50;;;;;;6271346;28;20053;-77
2022/08/10 06:24:41;;;;;;;2.90;0.57;;;27.20;41.90;;;;;;6270561;28;20041;-76
2022/08/10 06:27:44;;;;;;;4.43;0.98;;;27.20;41.40;;;;;;6270150;28;20055;-76
2022/08/10 06:30:48;;;;;;;5.35;0.93;;;27.10;41.40;;;;;;6270433;28;20450;-77
2022/08/10 06:33:51;;;;;;;5.32;1.75;;;27.30;41.60;;;;;;6286995;28;20048;-78
2022/08/10 06:36:57;;;;;;;2.13;1.10;;;28.20;40.70;;;;;;6305941;28;20040;-79
2022/08/10 06:39:58;;;;;;;2.00;0.82;;;29.40;38.70;;;;;;6265666;28;20053;-79
2022/08/10 06:43:04;;;;;;;1.33;0.68;;;30.40;37.60;;;;;;6302307;28;20037;-80
2022/08/10 06:46:09;;;;;;;7.25;0.82;;;31.30;36.30;;;;;;6301894;28;20051;-79
2022/08/10 06:49:13;;;;;;;4.43;1.08;;;31.80;35.60;;;;;;6300769;28;20071;-78
2022/08/10 06:52:18;;;;;;;17.05;1.33;;;32.20;35.40;;;;;;6301283;28;20522;-79
2022/08/10 06:55:23;;;;;;;4.03;0.60;;;32.50;34.50;;;;;;6301868;28;20055;-80
2022/08/10 06:58:28;;;;;;;2.63;0.82;;;31.80;35.40;;;;;;6303107;28;20048;-80
2022/08/10 07:01:33;;;;;;;1.65;0.60;;;31.00;36.10;;;;;;6303018;28;20496;-79
2022/08/10 07:04:40;;;;;;;1.50;0.77;;;30.30;37.40;;;;;;6300802;28;20044;-79
2022/08/10 07:07:44;;;;;;;2.78;0.80;;;29.40;38.30;;;;;;6300283;28;20052;-78
2022/08/10 07:10:48;;;;;;;6.50;0.98;;;28.60;39.30;;;;;;6300288;28;20071;-79
2022/08/10 07:13:51;;;;;;;1.60;0.75;;;28.10;40.20;;;;;;6300090;28;20515;-79
2022/08/10 07:16:55;;;;;;;3.50;0.82;;;27.60;40.50;;;;;;6300520;28;20139;-79
2022/08/10 07:19:59;;;;;;;1.42;0.88;;;27.30;41.10;;;;;;6299319;28;20053;-78
2022/08/10 07:23:03;;;;;;;2.15;0.70;;;27.10;41.60;;;;;;6299402;28;20051;-80
2022/08/10 07:26:08;;;;;;;1.45;0.90;;;26.90;41.90;;;;;;6299562;28;20052;-79
2022/08/10 07:29:10;;;;;;;3.83;0.88;;;27.20;42.00;;;;;;6299558;28;20075;-79
2022/08/10 07:32:13;;;;;;;3.28;0.57;;;27.30;41.50;;;;;;6300238;28;20064;-79
2022/08/10 07:35:17;;;;;;;2.70;0.77;;;27.60;41.20;;;;;;6301198;28;20048;-78
2022/08/10 07:38:23;;;;;;;5.85;0.68;;;27.80;41.00;;;;;;6300963;28;20419;-80
2022/08/10 07:41:29;;;;;;;2.58;0.80;;;27.90;40.80;;;;;;6292102;28;20059;-78
2022/08/10 07:44:32;;;;;;;2.67;1.00;;;28.00;40.80;;;;;;6299779;28;20051;-79
2022/08/10 07:47:39;;;;;;;4.65;1.20;;;28.20;40.30;;;;;;6299399;28;20047;-78
2022/08/10 07:50:42;;;;;;;3.97;0.68;;;28.10;40.10;;;;;;6300461;28;20135;-78
2022/08/10 07:53:49;;;;;;;3.55;0.63;;;28.00;40.50;;;;;;6301243;28;20052;-79
2022/08/10 07:56:53;;;;;;;2.50;0.73;;;28.10;40.70;;;;;;6301343;28;20484;-78
2022/08/10 07:59:58;;;;;;;3.92;0.70;;;28.40;40.20;;;;;;6300010;28;20153;-79
2022/08/10 08:03:05;;;;;;;2.50;0.70;;;28.70;40.00;;;;;;6299907;28;20050;-78
2022/08/10 08:06:08;;;;;;;3.20;0.82;;;28.90;39.10;;;;;;6299406;28;20052;-79
2022/08/10 08:09:11;;;;;;;1.27;0.60;;;29.10;39.10;;;;;;6299882;28;20048;-79
2022/08/10 08:12:15;;;;;;;6.25;0.50;;;29.30;39.10;;;;;;6300087;28;20554;-79
2022/08/10 08:15:20;;;;;;;2.50;0.57;;;29.60;38.10;;;;;;6299511;28;20195;-78
2022/08/10 08:18:24;;;;;;;2.00;0.40;;;29.50;37.30;;;;;;6299789;28;20093;-79
2022/08/10 08:21:27;;;;;;;2.88;0.82;;;29.20;37.60;;;;;;6304999;28;20052;-80
2022/08/10 08:24:34;;;;;;;1.45;0.52;;;29.00;37.70;;;;;;6306910;28;20054;-79
2022/08/10 08:27:37;;;;;;;0.50;0.30;;;28.90;38.70;;;;;;6307376;28;20048;-79
2022/08/10 08:30:41;;;;;;;3.97;1.00;;;29.00;38.20;;;;;;6306750;28;20104;-80
2022/08/10 08:33:45;;;;;;;5.10;0.60;;;29.30;37.80;;;;;;6306574;28;20048;-80
2022/08/10 08:36:49;;;;;;;4.40;0.80;;;29.40;37.70;;;;;;6306324;28;20097;-79
2022/08/10 08:39:52;;;;;;;2.30;0.57;;;29.60;37.10;;;;;;6284220;28;20037;-77
2022/08/10 08:43:29;;;;;;;2.50;0.50;;;31.60;35.80;;;;;;6297345;28;20047;-79
2022/08/10 08:46:44;;;;;;;4.20;0.60;;;34.50;32.50;;;;;;6305791;28;20060;-80
2022/08/10 08:49:57;;;;;;;2.08;0.47;;;36.00;30.40;;;;;;6305710;28;20070;-79
2022/08/10 08:53:10;;;;;;;9.52;0.68;;;35.90;30.10;;;;;;6305982;28;20052;-80
2022/08/10 08:56:25;;;;;;;6.10;0.90;;;36.60;29.70;;;;;;6309372;28;20717;-80
2022/08/10 08:59:45;;;;;;;0.93;0.50;;;35.50;30.00;;;;;;6303626;28;20495;-78
2022/08/10 09:03:07;;;;;;;2.40;0.70;;;34.30;31.20;;;;;;6303385;28;20048;-78
2022/08/10 09:06:23;;;;;;;2.15;0.63;;;33.70;31.30;;;;;;6296164;28;20059;-81
2022/08/10 09:09:47;;;;;;;3.28;0.32;;;32.90;31.90;;;;;;6302354;28;20051;-79
2022/08/10 09:12:57;;;;;;;6.45;0.63;;;33.50;31.60;;;;;;6303627;28;20064;-78
2022/08/10 09:16:15;;;;;;;1.17;0.47;;;34.50;30.30;;;;;;6303315;28;20521;-79
2022/08/10 09:19:21;;;;;;;;;;;36.20;29.80;;;;;;6304379;28;20040;-80
2022/08/10 09:22:30;;;;;;;1.55;0.60;;;37.20;28.50;;;;;;6303823;28;19921;-80
2022/08/10 09:25:35;;;;;;;3.40;0.68;;;37.50;28.00;;;;;;6305255;28;20052;-79
2022/08/10 09:28:42;;;;;;;2.22;0.50;;;37.70;27.90;;;;;;6303316;28;20044;-80
2022/08/10 09:31:46;;;;;;;1.85;0.40;;;37.30;28.30;;;;;;6303164;28;20051;-80
2022/08/10 09:35:01;;;;;;;2.33;0.52;;;37.30;28.00;;;;;;6303944;28;20044;-80
2022/08/10 09:38:11;;;;;;;1.13;0.40;;;37.20;27.90;;;;;;6279746;28;20488;-79
2022/08/10 09:41:22;;;;;;;2.13;0.40;;;37.50;27.90;;;;;;6283175;28;20056;-79
2022/08/10 09:44:33;;;;;;;1.02;0.40;;;37.70;27.50;;;;;;6298893;28;20045;-80
2022/08/10 09:47:52;;;;;;;2.35;0.30;;;37.20;27.50;;;;;;6305675;28;20044;-79
2022/08/10 09:51:02;;;;;;;2.85;0.45;;;36.80;27.70;;;;;;6307303;28;20052;-80
2022/08/10 09:54:15;;;;;;;1.70;0.50;;;37.10;27.40;;;;;;6304615;28;20044;-79
2022/08/10 09:57:23;;;;;;;0.82;0.38;;;36.90;27.60;;;;;;6304277;28;20577;-78
2022/08/10 10:00:34;;;;;;;2.47;0.80;;;36.80;27.90;;;;;;6304463;28;20147;-77
2022/08/10 10:03:44;;;;;;;2.03;0.77;;;36.90;28.00;;;;;;6304221;28;20040;-77
2022/08/10 10:06:59;;;;;;;3.33;0.60;;;37.30;27.60;;;;;;6303534;28;20393;-79
2022/08/10 10:10:07;;;;;;;1.67;0.60;;;36.70;27.00;;;;;;6302815;28;20078;-79
2022/08/10 10:13:14;;;;;;;8.88;0.60;;;35.50;27.70;;;;;;6303455;28;20052;-79
2022/08/10 10:16:25;;;;;;;;;;;34.70;28.00;;;;;;6304298;28;20442;-78
2022/08/10 10:19:42;;;;;;;0.65;0.40;;;34.10;28.50;;;;;;6302916;28;19927;-79
2022/08/10 10:22:56;;;;;;;0.75;0.30;;;33.60;28.70;;;;;;6303079;28;20088;-79
2022/08/10 10:26:05;;;;;;;1.25;0.40;;;33.00;29.20;;;;;;6303086;28;20056;-79
2022/08/10 10:29:28;;;;;;;2.35;0.40;;;32.70;29.30;;;;;;6303008;28;20044;-79
2022/08/10 10:32:41;;;;;;;1.08;0.40;;;32.80;29.70;;;;;;6303687;28;20519;-79
2022/08/10 10:35:50;;;;;;;2.22;0.50;;;33.00;29.30;;;;;;6301615;28;20127;-78
2022/08/10 10:38:55;;;;;;;1.27;0.60;;;33.10;30.00;;;;;;6277902;28;20056;-79
2022/08/10 10:42:11;;;;;;;5.65;0.57;;;33.60;29.30;;;;;;6280905;28;20511;-78
2022/08/10 10:45:18;;;;;;;0.70;0.38;;;33.90;29.10;;;;;;6297254;28;20122;-79
2022/08/10 10:48:32;;;;;;;2.28;0.43;;;33.90;28.50;;;;;;6302098;28;20060;-79
2022/08/10 10:51:42;;;;;;;1.98;0.47;;;33.70;28.70;;;;;;6302415;28;20056;-79
2022/08/10 10:54:56;;;;;;;2.58;0.55;;;33.50;28.30;;;;;;6302999;28;20048;-79
2022/08/10 10:58:05;;;;;;;2.97;0.43;;;33.40;28.90;;;;;;6302594;28;20059;-78
2022/08/10 11:01:14;;;;;;;7.72;0.57;;;33.40;28.60;;;;;;6303069;28;20419;-79
2022/08/10 11:04:24;;;;;;;2.88;0.80;;;33.30;28.40;;;;;;6302051;28;20044;-79
2022/08/10 11:07:34;;;;;;;5.28;0.88;;;33.40;28.60;;;;;;6302464;28;20044;-79
2022/08/10 11:10:44;;;;;;;6.25;0.77;;;33.40;28.40;;;;;;6302285;28;20500;-79
2022/08/10 11:13:54;;;;;;;3.70;0.40;;;33.50;28.30;;;;;;6303150;28;20051;-79
2022/08/10 11:17:02;;;;;;;6.95;1.13;;;33.80;28.40;;;;;;6301908;28;20054;-79
2022/08/10 11:20:25;;;;;;;3.10;0.60;;;33.60;27.90;;;;;;6301195;28;20041;-79
2022/08/10 11:23:36;;;;;;;11.70;1.85;;;33.60;27.80;;;;;;6304992;28;20055;-80
2022/08/10 11:26:46;;;;;;;2.05;0.43;;;33.70;27.80;;;;;;6307496;28;20053;-78
2022/08/10 11:29:56;;;;;;;1.02;0.52;;;33.90;27.80;;;;;;6305991;28;20052;-78
2022/08/10 11:33:10;;;;;;;0.73;0.45;;;34.00;27.10;;;;;;6304425;28;20049;-77
2022/08/10 11:36:24;;;;;;;2.72;0.57;;;33.70;27.10;;;;;;6302770;28;20503;-78
2022/08/10 11:39:34;;;;;;;2.97;0.50;;;33.70;27.60;;;;;;6302180;28;20055;-76
2022/08/10 11:42:43;;;;;;;0.68;0.47;;;33.90;27.00;;;;;;6298943;28;20048;-76
2022/08/10 11:45:50;;;;;;;3.03;0.73;;;34.10;27.10;;;;;;6290020;28;20052;-76
2022/08/10 11:49:02;;;;;;;0.35;0.25;;;34.30;27.00;;;;;;6298947;28;20051;-76
2022/08/10 11:52:12;;;;;;;3.45;0.50;;;34.50;27.00;;;;;;6298814;28;20048;-76
2022/08/10 11:55:20;;;;;;;3.40;0.57;;;34.40;26.70;;;;;;6300335;28;20462;-76
2022/08/10 12:01:43;;;;;;;4.13;0.52;;;34.00;27.00;;;;;;6300515;28;19952;-76
2022/08/10 12:04:50;;;;;;;1.63;0.38;;;33.90;27.40;;;;;;6299142;28;20064;-77
2022/08/10 12:07:56;;;;;;;1.13;0.20;;;34.20;27.00;;;;;;6299062;28;20057;-76
2022/08/10 12:10:58;;;;;;;5.07;0.50;;;34.40;27.10;;;;;;6298220;28;20044;-77
2022/08/10 12:14:05;;;;;;;3.40;0.50;;;34.50;26.90;;;;;;6298572;28;20056;-76
2022/08/10 12:17:13;;;;;;;4.57;0.50;;;34.30;26.80;;;;;;6298399;28;20431;-76
2022/08/10 12:20:21;;;;;;;1.00;0.63;;;34.20;26.90;;;;;;6297713;28;20045;-76
2022/08/10 12:23:35;;;;;;;1.48;0.25;;;34.20;26.80;;;;;;6297859;28;20056;-76
2022/08/10 12:26:42;;;;;;;6.18;0.60;;;34.20;27.10;;;;;;6297976;28;20052;-76
2022/08/10 12:29:46;;;;;;;;;;;34.20;27.10;;;;;;6297973;28;20052;-76
2022/08/10 12:33:00;;;;;;;2.13;0.45;;;34.50;27.00;;;;;;6297575;28;19943;-76
2022/08/10 12:36:06;;;;;;;1.38;0.57;;;34.50;26.50;;;;;;6287515;28;20066;-76
2022/08/10 12:39:15;;;;;;;1.40;0.55;;;34.30;26.50;;;;;;6297288;28;20131;-76
2022/08/10 12:42:22;;;;;;;1.13;0.40;;;34.10;26.70;;;;;;6297400;28;20048;-76
2022/08/10 12:45:31;;;;;;;2.03;0.43;;;34.20;27.00;;;;;;6288200;28;20122;-76
2022/08/10 12:48:39;;;;;;;2.13;0.55;;;34.40;26.90;;;;;;6297142;28;20048;-76
2022/08/10 12:51:45;;;;;;;2.30;0.35;;;34.50;26.80;;;;;;6297164;28;20531;-76
2022/08/10 12:54:51;;;;;;;3.72;0.38;;;34.50;27.00;;;;;;6272241;28;20424;-76
2022/08/10 12:57:55;;;;;;;3.95;0.50;;;34.40;26.90;;;;;;6272283;28;20055;-77
2022/08/10 13:00:59;;;;;;;3.33;0.50;;;34.00;27.00;;;;;;6272498;28;20060;-76
2022/08/10 13:04:06;;;;;;;3.40;0.47;;;33.80;27.20;;;;;;6287778;28;20041;-76
2022/08/10 13:07:09;;;;;;;0.30;0.20;;;33.90;27.10;;;;;;6296422;28;20044;-76
2022/08/10 13:10:17;;;;;;;1.10;0.38;;;33.90;27.40;;;;;;6296600;28;20047;-76
2022/08/10 13:13:23;;;;;;;2.40;0.65;;;34.10;26.90;;;;;;6297168;28;20428;-76
2022/08/10 13:16:26;;;;;;;4.45;0.77;;;34.10;27.00;;;;;;6292939;28;20044;-76
2022/08/10 13:19:30;;;;;;;2.25;0.30;;;34.00;27.00;;;;;;6271373;28;20060;-76
2022/08/10 13:22:34;;;;;;;7.95;0.88;;;34.20;27.10;;;;;;6272015;28;20055;-76
2022/08/10 13:25:41;;;;;;;1.80;0.22;;;33.90;26.90;;;;;;6271975;28;20412;-75
2022/08/10 13:28:46;;;;;;;8.32;0.40;;;33.80;27.40;;;;;;6271424;28;20051;-77
2022/08/10 13:31:51;;;;;;;2.25;0.60;;;34.30;27.10;;;;;;6271490;28;20076;-77
2022/08/10 13:34:56;;;;;;;1.65;0.50;;;34.50;26.80;;;;;;6294166;28;20044;-76
2022/08/10 13:38:01;;;;;;;7.80;0.60;;;34.80;26.70;;;;;;6271201;28;20055;-76
2022/08/10 13:41:05;;;;;;;3.65;1.05;;;34.90;26.70;;;;;;6272043;28;20055;-75
2022/08/10 13:44:09;;;;;;;4.95;0.80;;;34.70;26.80;;;;;;6271422;28;20052;-76
2022/08/10 13:47:13;;;;;;;3.00;0.60;;;34.40;26.90;;;;;;6281712;28;20040;-76
2022/08/10 13:50:22;;;;;;;3.42;0.43;;;34.30;27.00;;;;;;6295570;28;20053;-76
2022/08/10 13:53:29;;;;;;;1.98;0.57;;;34.50;26.90;;;;;;6296365;28;20048;-77
2022/08/10 13:56:34;;;;;;;1.05;0.40;;;34.40;26.70;;;;;;6296509;28;20045;-76
2022/08/10 13:59:36;;;;;;;0.50;0.35;;;34.10;26.70;;;;;;6295593;28;20051;-76
2022/08/10 14:02:41;;;;;;;3.80;0.43;;;33.90;27.10;;;;;;6295900;28;20044;-77
2022/08/10 14:05:50;;;;;;;0.95;0.40;;;34.00;27.10;;;;;;6296093;28;20052;-76
2022/08/10 14:08:55;;;;;;;0.75;0.40;;;34.00;27.10;;;;;;6295823;28;20048;-75
2022/08/10 14:12:00;;;;;;;1.50;0.43;;;33.90;27.00;;;;;;6295637;28;20048;-77
2022/08/10 14:15:04;;;;;;;1.17;0.35;;;33.80;27.00;;;;;;6296169;28;20045;-76
2022/08/10 14:18:08;;;;;;;2.55;0.30;;;33.70;27.10;;;;;;6298517;28;20059;-78
2022/08/10 14:21:10;;;;;;;3.75;0.45;;;34.00;27.30;;;;;;6300828;28;20492;-79
2022/08/10 14:24:24;;;;;;;3.30;0.70;;;34.20;27.00;;;;;;6300977;28;20052;-80
2022/08/10 14:27:32;;;;;;;0.40;0.25;;;34.10;27.20;;;;;;6291484;28;20578;-78
2022/08/10 14:30:34;;;;;;;2.90;0.52;;;34.20;27.00;;;;;;6276273;28;20156;-78
2022/08/10 14:33:38;;;;;;;1.20;0.40;;;34.20;27.20;;;;;;6288670;28;20049;-79
2022/08/10 14:36:45;;;;;;;0.80;0.52;;;33.90;27.10;;;;;;6299938;28;20052;-79
2022/08/10 14:39:51;;;;;;;1.10;0.43;;;33.90;27.20;;;;;;6302641;28;20040;-79
2022/08/10 14:43:01;;;;;;;1.17;0.52;;;34.00;27.00;;;;;;6276499;28;20053;-78
2022/08/10 14:46:06;;;;;;;1.58;0.30;;;34.20;27.20;;;;;;6294830;28;20056;-79
2022/08/10 14:49:09;;;;;;;0.93;0.32;;;34.50;27.00;;;;;;6280337;28;20057;-77
2022/08/10 14:52:12;;;;;;;3.72;0.32;;;34.40;27.00;;;;;;6274043;28;20045;-77
2022/08/10 14:55:14;;;;;;;5.20;0.60;;;34.00;27.10;;;;;;6273989;28;20049;-78
2022/08/10 14:58:25;;;;;;;3.55;0.75;;;33.50;27.30;;;;;;6275788;28;20055;-78
2022/08/10 15:01:27;;;;;;;3.58;0.45;;;33.30;27.60;;;;;;6279190;28;20550;-76
2022/08/10 15:04:30;;;;;;;2.10;0.45;;;33.30;27.60;;;;;;6297717;28;20048;-77
2022/08/10 15:07:33;;;;;;;3.92;0.73;;;32.90;28.00;;;;;;6303208;28;20504;-77
2022/08/10 15:10:35;;;;;;;1.10;0.40;;;32.80;27.90;;;;;;6302731;28;20515;-78
2022/08/10 15:13:44;;;;;;;4.25;0.80;;;32.60;28.10;;;;;;6304777;28;20052;-78
2022/08/10 15:16:47;;;;;;;1.13;0.47;;;32.60;28.20;;;;;;6303323;28;20423;-78
2022/08/10 15:19:54;;;;;;;4.85;0.43;;;32.70;28.10;;;;;;6303209;28;20051;-78
2022/08/10 15:23:00;;;;;;;1.75;0.40;;;32.80;28.10;;;;;;6305138;28;20048;-77
2022/08/10 15:26:05;;;;;;;1.52;0.40;;;33.20;28.20;;;;;;6305804;28;20048;-77
2022/08/10 15:29:12;;;;;;;1.13;0.30;;;33.50;27.80;;;;;;6304606;28;20121;-78
2022/08/10 15:38:59;;;;;;;1.83;0.40;;;33.00;27.60;;;;;;6303966;28;20500;-78
2022/08/10 15:42:07;;;;;;;2.55;0.50;;;32.90;27.90;;;;;;6306036;28;20041;-78
2022/08/10 15:45:16;;;;;;;1.65;0.45;;;33.00;27.70;;;;;;6304816;28;20055;-77
2022/08/10 15:48:19;;;;;;;6.07;0.57;;;33.00;27.60;;;;;;6296053;28;20044;-77
2022/08/10 15:51:26;;;;;;;1.80;0.50;;;32.80;27.70;;;;;;6302838;28;20118;-78
2022/08/10 15:54:30;;;;;;;0.60;0.32;;;32.80;27.80;;;;;;6303956;28;20496;-77
2022/08/10 15:57:37;;;;;;;1.38;0.50;;;32.80;27.80;;;;;;6304337;28;20049;-77
2022/08/10 16:00:47;;;;;;;1.50;0.43;;;32.80;27.70;;;;;;6304257;28;20053;-77
2022/08/10 16:03:55;;;;;;;2.65;0.47;;;32.80;27.70;;;;;;6303242;28;20290;-78
2022/08/10 16:07:02;;;;;;;2.92;0.52;;;32.90;27.70;;;;;;6304038;28;20048;-77
2022/08/10 16:10:08;;;;;;;0.60;0.30;;;32.70;27.80;;;;;;6302386;28;20511;-77
2022/08/10 16:13:13;;;;;;;2.60;0.40;;;32.70;27.90;;;;;;6303560;28;20070;-78
2022/08/10 16:16:18;;;;;;;1.05;0.40;;;32.70;27.80;;;;;;6304571;28;20047;-78
2022/08/10 16:19:21;;;;;;;1.75;0.55;;;32.60;27.80;;;;;;6303799;28;20049;-77